DAUU/OGX METAR and TAF weather

Enter ICAO airport designator
Station Type Date Time Source
DAUU METAR 2019/12/11 17:00 UTC NOAA

DAUU 111700Z 00000KT CAVOK 16/M05 Q1020


Station Type Date Time Source
DAUU Decoded METAR 2019/12/11 17:00 UTC NOAA

Ouargla, Algeria (DAUU) 31-55N 005-24E 141M
Dec 11, 2019 - 12:00 PM EST / 2019.12.11 1700 UTC
Wind: Calm:0
Visibility: greater than 7 mile(s):0
Temperature: 60 F (16 C)
Dew Point: 23 F (-5 C)
Relative Humidity: 23%
Pressure (altimeter): 30.12 in. Hg (1020 hPa)
ob: DAUU 111700Z 00000KT CAVOK 16/M05 Q1020
cycle: 17

Station Type Date Time Source
DAUU TAF 2017/11/09 18:03 UTC NOAA

TAF DAUU 091700Z 0918/1009 34012KT 9999 FEW040 SCT100 PROB40
TEMPO 0918/0924 34015G25KT 5000 -TSRA FEW036CB

Example: see airport list